Time;durP1;ratioP1;P1;durP2;ratioP2;P2;SDS_P1;SDS_P2;PMS_P1;PMS_P2;Temp;Humidity;BMP_temperature;BMP_pressure;BME280_temperature;BME280_humidity;BME280_pressure;Samples;Min_cycle;Max_cycle;Signal;HPM_P1;HPM_P2
2023/08/11 00:01:29;;;;;;;8.70;5.35;;;;;;;;;;4838981;29;20065;-65
2023/08/11 00:03:56;;;;;;;7.07;4.25;;;;;;;;;;4834342;29;20050;-62
2023/08/11 00:06:23;;;;;;;6.22;3.70;;;;;;;;;;4826914;29;20069;-65
2023/08/11 00:08:49;;;;;;;9.02;3.88;;;;;;;;;;4814317;29;20050;-61
2023/08/11 00:11:16;;;;;;;11.70;3.90;;;;;;;;;;4839329;29;20062;-63
2023/08/11 00:13:43;;;;;;;9.88;3.80;;;;;;;;;;4838885;29;20125;-62
2023/08/11 00:16:10;;;;;;;6.10;3.58;;;;;;;;;;4825614;29;20088;-62
2023/08/11 00:18:36;;;;;;;5.65;3.08;;;;;;;;;;4831456;29;20050;-63
2023/08/11 00:21:03;;;;;;;6.28;3.08;;;;;;;;;;4830205;29;20045;-62
2023/08/11 00:23:30;;;;;;;5.80;3.38;;;;;;;;;;4827951;29;20661;-64
2023/08/11 00:25:56;;;;;;;5.43;2.92;;;;;;;;;;4820708;29;20110;-64
2023/08/11 00:28:23;;;;;;;3.63;2.50;;;;;;;;;;4834819;29;20085;-63
2023/08/11 00:30:50;;;;;;;7.72;2.75;;;;;;;;;;4821840;29;20568;-65
2023/08/11 00:33:16;;;;;;;7.20;4.15;;;;;;;;;;4823578;29;20054;-63
2023/08/11 00:35:43;;;;;;;7.38;3.90;;;;;;;;;;4843534;29;20137;-65
2023/08/11 00:38:10;;;;;;;8.35;4.75;;;;;;;;;;4838306;29;20049;-65
2023/08/11 00:40:36;;;;;;;9.88;6.03;;;;;;;;;;4823690;29;20050;-65
2023/08/11 00:43:03;;;;;;;9.77;5.07;;;;;;;;;;4820310;29;20047;-64
2023/08/11 00:45:29;;;;;;;13.10;5.65;;;;;;;;;;4831346;29;20141;-65
2023/08/11 00:47:56;;;;;;;10.30;4.80;;;;;;;;;;4820844;29;20054;-65
2023/08/11 00:50:23;;;;;;;9.63;4.95;;;;;;;;;;4829197;29;20054;-65
2023/08/11 00:52:49;;;;;;;10.40;4.88;;;;;;;;;;4833144;29;20062;-64
2023/08/11 00:55:18;;;;;;;11.35;5.35;;;;;;;;;;4822428;29;20137;-64
2023/08/11 00:57:45;;;;;;;10.85;5.22;;;;;;;;;;4826065;29;20098;-63
2023/08/11 01:00:13;;;;;;;12.40;5.40;;;;;;;;;;4834090;29;20077;-64
2023/08/11 01:02:42;;;;;;;9.32;5.20;;;;;;;;;;4824682;29;20721;-64
2023/08/11 01:05:09;;;;;;;8.88;4.38;;;;;;;;;;4811733;29;20054;-64
2023/08/11 01:07:56;;;;;;;8.95;4.57;;;;;;;;;;4820048;29;20061;-66
2023/08/11 01:10:28;;;;;;;6.88;4.50;;;;;;;;;;4822188;29;20116;-63
2023/08/11 01:13:14;;;;;;;17.60;5.88;;;;;;;;;;4836943;29;20054;-62
2023/08/11 01:15:41;;;;;;;7.25;4.20;;;;;;;;;;4836337;29;20050;-64
2023/08/11 01:18:07;;;;;;;7.35;4.70;;;;;;;;;;4831005;29;20133;-65
2023/08/11 01:20:35;;;;;;;7.57;4.57;;;;;;;;;;4828105;29;20519;-66
2023/08/11 01:23:01;;;;;;;9.55;4.72;;;;;;;;;;4833404;29;20062;-64
2023/08/11 01:25:29;;;;;;;10.07;5.22;;;;;;;;;;4830963;29;20251;-67
2023/08/11 01:27:57;;;;;;;8.85;4.75;;;;;;;;;;4848332;29;20088;-66
2023/08/11 01:30:24;;;;;;;10.88;4.32;;;;;;;;;;4839175;29;20050;-62
2023/08/11 01:32:53;;;;;;;6.57;3.53;;;;;;;;;;4837999;29;20114;-62
2023/08/11 01:35:20;;;;;;;10.32;4.57;;;;;;;;;;4838063;29;20061;-63
2023/08/11 01:38:04;;;;;;;6.68;3.50;;;;;;;;;;4838388;29;20053;-64
2023/08/11 01:40:30;;;;;;;9.65;3.63;;;;;;;;;;4838837;29;20054;-65
2023/08/11 01:42:58;;;;;;;9.82;5.15;;;;;;;;;;4838442;29;20046;-63
2023/08/11 01:45:26;;;;;;;9.93;4.25;;;;;;;;;;4838316;29;20090;-64
2023/08/11 01:47:53;;;;;;;8.02;3.97;;;;;;;;;;4838099;29;20058;-65
2023/08/11 01:50:21;;;;;;;5.88;4.55;;;;;;;;;;4852373;29;20049;-65
2023/08/11 01:52:48;;;;;;;7.25;4.35;;;;;;;;;;4856516;29;20112;-65
2023/08/11 01:55:16;;;;;;;11.07;4.13;;;;;;;;;;4857527;29;20504;-66
2023/08/11 01:57:43;;;;;;;10.23;4.85;;;;;;;;;;4841438;29;20062;-64
2023/08/11 02:00:23;;;;;;;6.63;3.72;;;;;;;;;;4841607;29;20054;-65
2023/08/11 02:02:50;;;;;;;6.60;4.35;;;;;;;;;;4841818;29;20098;-65
2023/08/11 02:05:16;;;;;;;7.25;4.07;;;;;;;;;;4838915;29;20061;-65
2023/08/11 02:07:44;;;;;;;9.18;4.15;;;;;;;;;;4841027;29;20133;-64
2023/08/11 02:10:12;;;;;;;7.05;3.55;;;;;;;;;;4839934;29;20558;-64
2023/08/11 02:12:41;;;;;;;8.43;3.83;;;;;;;;;;4839037;29;20098;-65
2023/08/11 02:15:08;;;;;;;13.63;3.80;;;;;;;;;;4825198;29;20110;-65
2023/08/11 02:17:34;;;;;;;11.95;4.00;;;;;;;;;;4830808;29;20491;-64
2023/08/11 02:20:12;;;;;;;7.35;4.05;;;;;;;;;;4827180;29;20077;-65
2023/08/11 02:22:39;;;;;;;5.38;3.47;;;;;;;;;;4836054;29;20129;-65
2023/08/11 02:25:05;;;;;;;10.00;3.90;;;;;;;;;;4830520;29;20130;-64
2023/08/11 02:27:32;;;;;;;7.43;4.15;;;;;;;;;;4824207;29;20134;-63
2023/08/11 02:29:58;;;;;;;10.50;4.13;;;;;;;;;;4836127;29;20058;-64
2023/08/11 02:32:25;;;;;;;8.10;3.90;;;;;;;;;;4840137;29;20133;-63
2023/08/11 02:34:51;;;;;;;10.80;4.55;;;;;;;;;;4834207;29;20503;-64
2023/08/11 02:37:17;;;;;;;5.57;3.38;;;;;;;;;;4828849;29;20130;-65
2023/08/11 02:39:44;;;;;;;6.90;4.07;;;;;;;;;;4823759;29;20128;-64
2023/08/11 02:42:10;;;;;;;8.48;4.38;;;;;;;;;;4839720;29;20061;-63
2023/08/11 02:44:37;;;;;;;14.75;3.97;;;;;;;;;;4810996;29;20133;-63
2023/08/11 02:47:03;;;;;;;6.43;4.40;;;;;;;;;;4836558;29;20499;-64
2023/08/11 02:49:30;;;;;;;7.30;4.00;;;;;;;;;;4840483;29;20056;-63
2023/08/11 02:51:56;;;;;;;11.27;4.90;;;;;;;;;;4833676;29;20078;-64
2023/08/11 02:54:22;;;;;;;11.65;3.25;;;;;;;;;;4829019;29;20074;-64
2023/08/11 02:56:49;;;;;;;18.38;5.07;;;;;;;;;;4832537;29;20147;-64
2023/08/11 02:59:15;;;;;;;8.20;4.10;;;;;;;;;;4828428;29;20049;-64
2023/08/11 03:01:42;;;;;;;11.27;4.28;;;;;;;;;;4835559;29;20125;-63
2023/08/11 03:04:08;;;;;;;8.02;3.80;;;;;;;;;;4820955;29;20058;-64
2023/08/11 03:06:35;;;;;;;5.93;3.42;;;;;;;;;;4832323;29;20050;-64
2023/08/11 03:09:01;;;;;;;11.93;3.90;;;;;;;;;;4838586;29;20132;-64
2023/08/11 03:11:29;;;;;;;7.05;3.83;;;;;;;;;;4835253;29;20097;-64
2023/08/11 03:13:55;;;;;;;10.25;4.60;;;;;;;;;;4837372;29;20441;-65
2023/08/11 03:16:25;;;;;;;6.68;3.35;;;;;;;;;;4822278;29;20105;-65
2023/08/11 03:18:52;;;;;;;8.07;4.07;;;;;;;;;;4821105;29;20610;-64
2023/08/11 03:21:18;;;;;;;6.72;3.53;;;;;;;;;;4821531;29;20567;-65
2023/08/11 03:23:46;;;;;;;8.23;3.40;;;;;;;;;;4822333;29;20153;-65
2023/08/11 03:26:13;;;;;;;11.30;3.70;;;;;;;;;;4814696;29;20057;-64
2023/08/11 03:28:40;;;;;;;6.10;3.40;;;;;;;;;;4853549;29;20062;-64
2023/08/11 03:31:06;;;;;;;8.57;3.78;;;;;;;;;;4838402;29;20050;-65
2023/08/11 03:33:33;;;;;;;9.75;4.50;;;;;;;;;;4822947;29;20137;-64
2023/08/11 03:35:59;;;;;;;7.38;3.97;;;;;;;;;;4838280;29;20054;-64
2023/08/11 03:38:26;;;;;;;8.88;4.45;;;;;;;;;;4839017;29;20145;-64
2023/08/11 03:40:52;;;;;;;7.90;4.25;;;;;;;;;;4837399;29;20130;-64
2023/08/11 03:43:19;;;;;;;6.55;4.30;;;;;;;;;;4830754;29;20054;-64
2023/08/11 03:45:45;;;;;;;7.47;4.47;;;;;;;;;;4812805;29;20049;-64
2023/08/11 03:48:12;;;;;;;7.95;4.50;;;;;;;;;;4839170;29;20054;-63
2023/08/11 03:50:38;;;;;;;7.45;4.10;;;;;;;;;;4837345;29;20086;-65
2023/08/11 03:53:04;;;;;;;9.43;4.20;;;;;;;;;;4821590;29;20093;-65
2023/08/11 03:55:31;;;;;;;10.75;5.00;;;;;;;;;;4824100;29;20085;-64
2023/08/11 03:57:57;;;;;;;10.05;4.60;;;;;;;;;;4840977;29;20126;-65
2023/08/11 04:00:24;;;;;;;7.78;4.78;;;;;;;;;;4846296;29;20046;-64
2023/08/11 04:02:50;;;;;;;8.57;4.53;;;;;;;;;;4857493;29;20095;-66
2023/08/11 04:05:17;;;;;;;9.45;4.47;;;;;;;;;;4839337;29;20042;-64
2023/08/11 04:07:44;;;;;;;10.25;4.90;;;;;;;;;;4805684;29;20055;-66
2023/08/11 04:10:11;;;;;;;6.60;4.22;;;;;;;;;;4834846;29;20078;-65
2023/08/11 04:12:37;;;;;;;6.88;4.18;;;;;;;;;;4826633;29;20132;-65
2023/08/11 04:15:05;;;;;;;9.18;4.25;;;;;;;;;;4825630;29;20061;-64
2023/08/11 04:17:33;;;;;;;12.30;5.30;;;;;;;;;;4830986;29;20133;-64
2023/08/11 04:20:00;;;;;;;10.77;4.72;;;;;;;;;;4822081;29;20065;-65
2023/08/11 04:22:27;;;;;;;8.75;4.57;;;;;;;;;;4836535;29;20053;-64
2023/08/11 04:25:05;;;;;;;9.73;5.72;;;;;;;;;;4833398;29;20058;-65
2023/08/11 04:27:31;;;;;;;6.80;3.80;;;;;;;;;;4836556;29;20472;-65
2023/08/11 04:29:58;;;;;;;8.57;5.05;;;;;;;;;;4842337;29;20132;-64
2023/08/11 04:32:24;;;;;;;7.80;5.07;;;;;;;;;;4857471;29;20500;-64
2023/08/11 04:34:51;;;;;;;8.88;4.65;;;;;;;;;;4845084;29;20128;-65
2023/08/11 04:37:18;;;;;;;12.85;4.90;;;;;;;;;;4835395;29;20450;-64
2023/08/11 04:39:44;;;;;;;6.30;4.10;;;;;;;;;;4823723;29;20496;-64
2023/08/11 04:42:12;;;;;;;9.18;5.18;;;;;;;;;;4821417;29;20053;-64
2023/08/11 04:44:39;;;;;;;5.30;3.92;;;;;;;;;;4822270;29;20062;-64
2023/08/11 04:47:05;;;;;;;7.65;5.40;;;;;;;;;;4836165;29;20050;-65
2023/08/11 04:49:32;;;;;;;11.93;5.93;;;;;;;;;;4838770;29;20088;-64
2023/08/11 04:51:58;;;;;;;9.25;4.95;;;;;;;;;;4857183;29;20140;-63
2023/08/11 04:54:25;;;;;;;11.65;4.97;;;;;;;;;;4841276;29;20058;-65
2023/08/11 04:56:52;;;;;;;9.43;5.10;;;;;;;;;;4822444;29;20089;-61
2023/08/11 04:59:18;;;;;;;12.32;5.88;;;;;;;;;;4846349;29;20077;-64
2023/08/11 05:01:45;;;;;;;7.72;4.55;;;;;;;;;;4811259;29;20057;-66
2023/08/11 05:04:12;;;;;;;8.85;5.60;;;;;;;;;;4839784;29;20053;-61
2023/08/11 05:06:39;;;;;;;11.10;5.05;;;;;;;;;;4846453;29;20057;-63
2023/08/11 05:09:05;;;;;;;14.55;7.38;;;;;;;;;;4856657;29;20061;-65
2023/08/11 05:11:32;;;;;;;11.82;6.57;;;;;;;;;;4838312;29;20141;-64
2023/08/11 05:13:58;;;;;;;15.98;5.50;;;;;;;;;;4831080;29;20448;-64
2023/08/11 05:16:25;;;;;;;10.20;4.50;;;;;;;;;;4829027;29;20565;-64
2023/08/11 05:18:51;;;;;;;10.75;4.88;;;;;;;;;;4823292;29;20057;-65
2023/08/11 05:21:18;;;;;;;8.18;4.75;;;;;;;;;;4837605;29;20057;-66
2023/08/11 05:23:44;;;;;;;8.68;5.47;;;;;;;;;;4824657;29;20058;-66
2023/08/11 05:26:11;;;;;;;6.95;4.50;;;;;;;;;;4820634;29;20085;-66
2023/08/11 05:28:38;;;;;;;9.05;4.80;;;;;;;;;;4825821;29;20053;-64
2023/08/11 05:31:04;;;;;;;10.73;5.40;;;;;;;;;;4842032;29;20053;-64
2023/08/11 05:33:31;;;;;;;13.30;5.05;;;;;;;;;;4841635;29;20054;-65
2023/08/11 05:35:57;;;;;;;8.70;5.50;;;;;;;;;;4841724;29;20085;-63
2023/08/11 05:38:24;;;;;;;7.50;4.50;;;;;;;;;;4841591;29;20141;-63
2023/08/11 05:40:50;;;;;;;10.75;5.50;;;;;;;;;;4841899;29;20168;-63
2023/08/11 05:43:17;;;;;;;11.18;5.13;;;;;;;;;;4841538;29;20054;-61
2023/08/11 05:45:44;;;;;;;9.88;4.50;;;;;;;;;;4841939;29;20791;-63
2023/08/11 05:48:10;;;;;;;10.02;4.88;;;;;;;;;;4842377;29;20414;-62
2023/08/11 05:50:38;;;;;;;6.03;4.55;;;;;;;;;;4841772;29;20482;-62
2023/08/11 05:53:05;;;;;;;10.05;4.97;;;;;;;;;;4841223;29;20157;-64
2023/08/11 05:55:31;;;;;;;17.52;5.30;;;;;;;;;;4841747;29;20534;-62
2023/08/11 05:57:58;;;;;;;9.85;4.20;;;;;;;;;;4841486;29;20077;-62
2023/08/11 06:00:24;;;;;;;8.63;4.40;;;;;;;;;;4841507;29;20389;-62
2023/08/11 06:02:50;;;;;;;9.60;5.43;;;;;;;;;;4840937;29;20148;-66
2023/08/11 06:05:21;;;;;;;9.20;5.00;;;;;;;;;;4841468;29;20102;-66
2023/08/11 06:07:48;;;;;;;10.05;4.60;;;;;;;;;;4841948;29;20045;-61
2023/08/11 06:10:32;;;;;;;10.73;5.30;;;;;;;;;;4841556;29;20118;-64
2023/08/11 06:12:58;;;;;;;9.40;4.45;;;;;;;;;;4841290;29;20549;-65
2023/08/11 06:15:25;;;;;;;10.98;5.28;;;;;;;;;;4841184;29;20050;-65
2023/08/11 06:17:51;;;;;;;9.95;4.50;;;;;;;;;;4841140;29;20460;-63
2023/08/11 06:20:18;;;;;;;8.07;4.68;;;;;;;;;;4840779;29;20582;-63
2023/08/11 06:23:00;;;;;;;6.60;4.13;;;;;;;;;;4840908;29;20045;-65
2023/08/11 06:25:27;;;;;;;14.75;3.92;;;;;;;;;;4841036;29;20525;-64
2023/08/11 06:27:54;;;;;;;9.27;3.65;;;;;;;;;;4841200;29;20738;-64
2023/08/11 06:30:20;;;;;;;7.55;4.50;;;;;;;;;;4840875;29;20084;-63
2023/08/11 06:32:47;;;;;;;12.80;4.50;;;;;;;;;;4841508;29;20061;-62
2023/08/11 06:35:13;;;;;;;10.15;4.28;;;;;;;;;;4840890;29;20462;-63
2023/08/11 06:37:40;;;;;;;9.52;5.22;;;;;;;;;;4839847;29;20050;-63
2023/08/11 06:40:07;;;;;;;4.88;3.20;;;;;;;;;;4840187;29;20557;-63
2023/08/11 06:42:33;;;;;;;5.88;3.13;;;;;;;;;;4840470;29;20050;-63
2023/08/11 06:45:00;;;;;;;4.28;3.10;;;;;;;;;;4840541;29;20102;-63
2023/08/11 06:47:26;;;;;;;9.82;3.20;;;;;;;;;;4840670;29;20145;-63
2023/08/11 06:49:53;;;;;;;6.18;3.40;;;;;;;;;;4840588;29;20050;-65
2023/08/11 06:52:20;;;;;;;7.63;3.08;;;;;;;;;;4841326;29;20046;-64
2023/08/11 06:54:46;;;;;;;6.60;3.72;;;;;;;;;;4840758;29;20284;-68
2023/08/11 06:57:12;;;;;;;9.68;2.90;;;;;;;;;;4840458;29;20081;-64
2023/08/11 06:59:39;;;;;;;6.20;3.25;;;;;;;;;;4839138;29;20605;-63
2023/08/11 07:02:06;;;;;;;6.13;3.10;;;;;;;;;;4840674;29;20428;-65
2023/08/11 07:04:32;;;;;;;6.28;3.13;;;;;;;;;;4841917;29;20212;-62
2023/08/11 07:06:59;;;;;;;7.82;3.55;;;;;;;;;;4840171;29;20086;-64
2023/08/11 07:09:25;;;;;;;11.45;3.40;;;;;;;;;;4840326;29;20050;-64
2023/08/11 07:11:52;;;;;;;8.30;3.50;;;;;;;;;;4840200;29;20123;-63
2023/08/11 07:14:18;;;;;;;7.00;3.05;;;;;;;;;;4840096;29;20122;-64
2023/08/11 07:16:44;;;;;;;8.63;2.80;;;;;;;;;;4840146;29;20566;-63
2023/08/11 07:19:11;;;;;;;10.00;3.13;;;;;;;;;;4836735;29;20049;-65
2023/08/11 07:21:37;;;;;;;11.07;2.72;;;;;;;;;;4829858;29;20148;-63
2023/08/11 07:24:04;;;;;;;5.10;3.47;;;;;;;;;;4837212;29;20053;-64
2023/08/11 07:26:30;;;;;;;4.28;2.40;;;;;;;;;;4839904;29;20088;-63
2023/08/11 07:28:57;;;;;;;4.63;2.58;;;;;;;;;;4839961;29;20058;-65
2023/08/11 07:31:24;;;;;;;5.40;2.40;;;;;;;;;;4839412;29;20064;-63
2023/08/11 07:33:50;;;;;;;6.07;3.08;;;;;;;;;;4839577;29;20054;-63
2023/08/11 07:36:16;;;;;;;6.00;2.55;;;;;;;;;;4839173;29;20161;-64
2023/08/11 07:38:43;;;;;;;4.25;2.80;;;;;;;;;;4839685;29;20110;-64
2023/08/11 07:41:09;;;;;;;5.85;2.83;;;;;;;;;;4839336;29;20452;-62
2023/08/11 07:43:36;;;;;;;6.80;2.92;;;;;;;;;;4838780;29;20054;-66
2023/08/11 07:46:03;;;;;;;10.93;2.92;;;;;;;;;;4839048;29;20110;-65
2023/08/11 07:48:29;;;;;;;7.70;2.70;;;;;;;;;;4838878;29;20053;-65
2023/08/11 07:50:56;;;;;;;9.07;3.17;;;;;;;;;;4839574;29;20046;-63
2023/08/11 07:53:22;;;;;;;8.38;2.75;;;;;;;;;;4839021;29;20093;-63
2023/08/11 07:55:49;;;;;;;7.55;2.88;;;;;;;;;;4840129;29;20134;-62
2023/08/11 07:58:15;;;;;;;8.02;3.17;;;;;;;;;;4839572;29;20141;-63
2023/08/11 08:00:42;;;;;;;10.02;3.38;;;;;;;;;;4839623;29;20053;-64
2023/08/11 08:03:08;;;;;;;5.50;3.15;;;;;;;;;;4839688;29;20061;-63
2023/08/11 08:05:35;;;;;;;4.78;2.55;;;;;;;;;;4839385;29;20069;-63
2023/08/11 08:08:01;;;;;;;14.80;4.03;;;;;;;;;;4839517;29;20081;-64
2023/08/11 08:10:28;;;;;;;4.13;2.17;;;;;;;;;;4838931;29;20062;-65
2023/08/11 08:12:54;;;;;;;11.43;2.78;;;;;;;;;;4839076;29;20487;-65
2023/08/11 08:15:21;;;;;;;11.25;3.63;;;;;;;;;;4839158;29;20049;-65
2023/08/11 08:17:48;;;;;;;7.38;2.30;;;;;;;;;;4839030;29;20065;-64
2023/08/11 08:20:18;;;;;;;9.55;2.25;;;;;;;;;;4839121;29;20118;-63
2023/08/11 08:22:44;;;;;;;7.03;2.65;;;;;;;;;;4838657;29;20544;-64
2023/08/11 08:25:11;;;;;;;8.07;2.22;;;;;;;;;;4839536;29;20143;-65
2023/08/11 08:27:39;;;;;;;5.18;2.28;;;;;;;;;;4839095;29;20054;-63
2023/08/11 08:30:06;;;;;;;5.57;2.00;;;;;;;;;;4838788;29;20053;-63
2023/08/11 08:32:33;;;;;;;4.20;2.47;;;;;;;;;;4838807;29;20049;-62
2023/08/11 08:35:00;;;;;;;15.25;3.15;;;;;;;;;;4838768;29;20448;-65
2023/08/11 08:37:28;;;;;;;4.15;1.58;;;;;;;;;;4838478;29;20532;-64
2023/08/11 08:39:55;;;;;;;4.55;2.20;;;;;;;;;;4838772;29;20061;-62
2023/08/11 08:42:22;;;;;;;11.38;3.17;;;;;;;;;;4838866;29;20077;-66
2023/08/11 08:44:49;;;;;;;6.45;2.10;;;;;;;;;;4838919;29;20085;-63
2023/08/11 08:47:17;;;;;;;7.82;1.83;;;;;;;;;;4839222;29;20122;-63
2023/08/11 08:49:45;;;;;;;18.92;1.88;;;;;;;;;;4839090;29;20138;-63
2023/08/11 08:52:12;;;;;;;3.55;1.50;;;;;;;;;;4837528;29;20050;-63
2023/08/11 08:54:39;;;;;;;3.72;1.58;;;;;;;;;;4838753;29;20054;-62
2023/08/11 08:57:08;;;;;;;5.78;1.60;;;;;;;;;;4822019;29;20050;-64
2023/08/11 08:59:36;;;;;;;7.95;1.70;;;;;;;;;;4838621;29;20069;-64
2023/08/11 09:02:02;;;;;;;8.57;2.15;;;;;;;;;;4838344;29;20050;-64
2023/08/11 09:04:32;;;;;;;5.57;1.60;;;;;;;;;;4842438;29;20513;-62
2023/08/11 09:06:59;;;;;;;6.07;2.40;;;;;;;;;;4842188;29;20076;-69
2023/08/11 09:09:27;;;;;;;4.70;1.80;;;;;;;;;;4842459;29;20573;-65
2023/08/11 09:11:54;;;;;;;5.60;1.75;;;;;;;;;;4842166;29;20475;-65
2023/08/11 09:14:21;;;;;;;6.20;2.03;;;;;;;;;;4840297;29;20414;-67
2023/08/11 09:16:53;;;;;;;5.07;1.65;;;;;;;;;;4840811;29;20140;-63
2023/08/11 09:19:27;;;;;;;3.47;1.25;;;;;;;;;;4840828;29;20553;-64
2023/08/11 09:21:54;;;;;;;3.60;1.48;;;;;;;;;;4839718;29;20050;-63
2023/08/11 09:24:22;;;;;;;6.00;1.38;;;;;;;;;;4839096;29;20323;-64
2023/08/11 09:26:49;;;;;;;3.75;1.05;;;;;;;;;;4824323;29;20125;-62
2023/08/11 09:29:19;;;;;;;3.28;1.38;;;;;;;;;;4840543;29;20120;-62
2023/08/11 09:31:47;;;;;;;7.70;0.98;;;;;;;;;;4825632;29;20407;-64
2023/08/11 09:34:14;;;;;;;6.50;1.33;;;;;;;;;;4841089;29;20061;-63
2023/08/11 09:36:42;;;;;;;5.25;1.40;;;;;;;;;;4840655;29;20046;-63
2023/08/11 09:39:09;;;;;;;5.38;1.05;;;;;;;;;;4840511;29;20481;-63
2023/08/11 09:41:47;;;;;;;3.20;1.20;;;;;;;;;;4840360;29;20072;-65
2023/08/11 09:44:14;;;;;;;1.83;0.60;;;;;;;;;;4840309;29;20066;-63
2023/08/11 09:46:42;;;;;;;3.63;0.93;;;;;;;;;;4840125;29;20149;-65
2023/08/11 09:49:09;;;;;;;6.70;1.50;;;;;;;;;;4840261;29;20058;-65
2023/08/11 09:51:36;;;;;;;2.35;1.00;;;;;;;;;;4840249;29;20046;-63
2023/08/11 09:54:05;;;;;;;2.38;1.27;;;;;;;;;;4840689;29;20590;-63
2023/08/11 09:56:36;;;;;;;5.45;1.48;;;;;;;;;;4840453;29;20046;-62
2023/08/11 09:59:09;;;;;;;3.10;0.90;;;;;;;;;;4840341;29;20058;-63
2023/08/11 10:01:36;;;;;;;3.88;1.65;;;;;;;;;;4839979;29;20050;-62
2023/08/11 10:04:07;;;;;;;15.55;1.88;;;;;;;;;;4838513;29;20050;-62
2023/08/11 10:06:33;;;;;;;;;;;;;;;;;;4840401;29;20285;-62
2023/08/11 10:09:02;;;;;;;10.85;2.33;;;;;;;;;;4839890;29;20003;-62
2023/08/11 10:11:30;;;;;;;5.97;1.40;;;;;;;;;;4840019;29;20118;-63
2023/08/11 10:13:59;;;;;;;2.25;1.15;;;;;;;;;;4838858;29;20141;-63
2023/08/11 10:16:26;;;;;;;2.70;1.02;;;;;;;;;;4840397;29;20058;-62
2023/08/11 10:18:55;;;;;;;3.50;1.27;;;;;;;;;;4839984;29;20054;-65
2023/08/11 10:21:23;;;;;;;2.70;1.10;;;;;;;;;;4839685;29;20129;-65
2023/08/11 10:23:49;;;;;;;6.60;1.52;;;;;;;;;;4831452;29;20054;-62
2023/08/11 10:26:16;;;;;;;4.60;1.48;;;;;;;;;;4828413;29;20129;-62
2023/08/11 10:28:42;;;;;;;4.05;1.10;;;;;;;;;;4837538;29;20145;-62
2023/08/11 10:31:09;;;;;;;8.80;1.90;;;;;;;;;;4840362;29;20110;-64
2023/08/11 10:33:35;;;;;;;4.93;1.33;;;;;;;;;;4837071;29;20188;-64
2023/08/11 10:36:02;;;;;;;3.75;1.00;;;;;;;;;;4838489;29;20143;-63
2023/08/11 10:38:29;;;;;;;7.35;1.52;;;;;;;;;;4839456;29;20104;-62
2023/08/11 10:41:03;;;;;;;5.05;1.08;;;;;;;;;;4839917;29;20110;-62
2023/08/11 10:43:31;;;;;;;4.95;1.17;;;;;;;;;;4838727;29;20141;-64
2023/08/11 10:46:13;;;;;;;2.05;0.82;;;;;;;;;;4839295;29;20141;-65
2023/08/11 10:48:40;;;;;;;3.80;1.10;;;;;;;;;;4839255;29;20050;-64
2023/08/11 10:51:21;;;;;;;5.18;1.58;;;;;;;;;;4839145;29;20140;-64
2023/08/11 10:53:48;;;;;;;3.67;1.13;;;;;;;;;;4839062;29;20058;-63
2023/08/11 10:56:26;;;;;;;3.35;1.15;;;;;;;;;;4838996;29;20546;-64
2023/08/11 10:59:03;;;;;;;4.03;1.25;;;;;;;;;;4837657;29;20214;-63
2023/08/11 11:01:29;;;;;;;2.08;0.70;;;;;;;;;;4841788;29;20475;-64
2023/08/11 11:03:56;;;;;;;1.75;0.85;;;;;;;;;;4838792;29;20054;-63
2023/08/11 11:06:23;;;;;;;2.63;0.80;;;;;;;;;;4827210;29;20085;-64
2023/08/11 11:08:49;;;;;;;3.78;0.52;;;;;;;;;;4829554;29;20108;-66
2023/08/11 11:11:16;;;;;;;2.70;0.80;;;;;;;;;;4826914;29;20098;-64
2023/08/11 11:13:42;;;;;;;1.98;1.15;;;;;;;;;;4832542;29;20085;-63
2023/08/11 11:16:09;;;;;;;14.70;1.42;;;;;;;;;;4832298;29;20095;-62
2023/08/11 11:18:37;;;;;;;2.17;0.70;;;;;;;;;;4823548;29;20107;-64
2023/08/11 11:21:03;;;;;;;2.60;0.60;;;;;;;;;;4833306;29;20132;-62
2023/08/11 11:23:30;;;;;;;3.22;1.40;;;;;;;;;;4834034;29;20559;-63
2023/08/11 11:25:56;;;;;;;2.95;0.60;;;;;;;;;;4837001;29;20104;-62
2023/08/11 11:28:23;;;;;;;2.35;0.80;;;;;;;;;;4834181;29;20168;-64
2023/08/11 11:30:49;;;;;;;1.55;0.50;;;;;;;;;;4839727;29;20128;-63
2023/08/11 11:33:16;;;;;;;0.85;0.40;;;;;;;;;;4844069;29;20593;-62
2023/08/11 11:35:42;;;;;;;1.30;0.63;;;;;;;;;;4840237;29;20703;-64
2023/08/11 11:38:10;;;;;;;1.65;0.70;;;;;;;;;;4818532;29;20669;-63
2023/08/11 11:40:36;;;;;;;1.58;0.75;;;;;;;;;;4838041;29;20046;-64
2023/08/11 11:43:03;;;;;;;1.23;0.47;;;;;;;;;;4837338;29;20469;-63
2023/08/11 11:45:30;;;;;;;1.58;0.60;;;;;;;;;;4839719;29;20063;-62
2023/08/11 11:47:57;;;;;;;4.30;0.77;;;;;;;;;;4832943;29;20053;-62
2023/08/11 11:50:25;;;;;;;4.80;1.15;;;;;;;;;;4842534;29;20137;-63
2023/08/11 11:52:53;;;;;;;9.52;1.75;;;;;;;;;;4844356;29;20050;-64
2023/08/11 11:55:20;;;;;;;3.40;0.63;;;;;;;;;;4842873;29;20081;-64
2023/08/11 11:57:46;;;;;;;2.25;0.60;;;;;;;;;;4829277;29;20085;-66
2023/08/11 12:00:16;;;;;;;2.20;1.00;;;;;;;;;;4836540;29;20057;-67
2023/08/11 12:02:44;;;;;;;6.03;0.60;;;;;;;;;;4829413;29;20176;-64
2023/08/11 12:05:11;;;;;;;2.17;0.80;;;;;;;;;;4842728;29;20472;-65
2023/08/11 12:07:38;;;;;;;1.67;0.45;;;;;;;;;;4837298;29;20062;-67
2023/08/11 12:10:06;;;;;;;3.75;0.60;;;;;;;;;;4834324;29;20155;-66
2023/08/11 12:12:35;;;;;;;3.08;0.60;;;;;;;;;;4837642;29;20434;-71
2023/08/11 12:15:03;;;;;;;0.98;0.45;;;;;;;;;;4835708;29;20056;-68
2023/08/11 12:17:31;;;;;;;3.25;0.77;;;;;;;;;;4830552;29;20139;-68
2023/08/11 12:20:00;;;;;;;1.85;0.60;;;;;;;;;;4835286;29;20057;-70
2023/08/11 12:22:26;;;;;;;2.28;0.68;;;;;;;;;;4838648;29;20520;-68
2023/08/11 12:24:52;;;;;;;2.53;0.70;;;;;;;;;;4828351;29;20050;-68
2023/08/11 12:27:19;;;;;;;3.15;0.55;;;;;;;;;;4835238;29;20168;-68
2023/08/11 12:29:46;;;;;;;1.55;0.50;;;;;;;;;;4829596;29;20107;-69
2023/08/11 12:32:12;;;;;;;2.67;0.43;;;;;;;;;;4812592;29;20053;-68
2023/08/11 12:34:39;;;;;;;3.17;0.82;;;;;;;;;;4832211;29;20128;-63
2023/08/11 12:37:07;;;;;;;2.03;0.52;;;;;;;;;;4834531;29;20050;-64
2023/08/11 12:39:38;;;;;;;1.55;0.57;;;;;;;;;;4814860;29;20142;-64
2023/08/11 12:42:04;;;;;;;1.88;0.55;;;;;;;;;;4832070;29;20061;-63
2023/08/11 12:44:31;;;;;;;2.33;0.68;;;;;;;;;;4826943;29;20058;-64
2023/08/11 12:46:57;;;;;;;0.90;0.43;;;;;;;;;;4830977;29;20120;-65
2023/08/11 12:49:24;;;;;;;1.88;0.45;;;;;;;;;;4824246;29;20144;-62
2023/08/11 12:51:51;;;;;;;1.52;0.35;;;;;;;;;;4843450;29;20546;-65
2023/08/11 12:54:18;;;;;;;1.65;0.73;;;;;;;;;;4836773;29;20529;-66
2023/08/11 12:56:45;;;;;;;3.25;0.47;;;;;;;;;;4840523;29;20499;-65
2023/08/11 12:59:11;;;;;;;3.65;1.15;;;;;;;;;;4839345;29;20058;-68
2023/08/11 13:01:38;;;;;;;2.05;0.63;;;;;;;;;;4834659;29;20137;-66
2023/08/11 13:04:05;;;;;;;3.08;0.70;;;;;;;;;;4816388;29;20547;-64
2023/08/11 13:06:32;;;;;;;1.33;0.40;;;;;;;;;;4826079;29;20049;-62
2023/08/11 13:08:59;;;;;;;7.68;0.70;;;;;;;;;;4833197;29;20637;-63
2023/08/11 13:11:25;;;;;;;2.42;1.00;;;;;;;;;;4835305;29;20514;-64
2023/08/11 13:13:51;;;;;;;4.70;0.50;;;;;;;;;;4831246;29;20233;-65
2023/08/11 13:16:18;;;;;;;1.65;0.75;;;;;;;;;;4832783;29;20555;-66
2023/08/11 13:18:45;;;;;;;2.00;0.60;;;;;;;;;;4835478;29;20046;-63
2023/08/11 13:21:11;;;;;;;2.22;0.52;;;;;;;;;;4831618;29;20054;-64
2023/08/11 13:23:38;;;;;;;1.20;0.60;;;;;;;;;;4826548;29;20061;-64
2023/08/11 13:26:04;;;;;;;2.95;0.65;;;;;;;;;;4841015;29;20133;-65
2023/08/11 13:28:31;;;;;;;2.83;0.60;;;;;;;;;;4840745;29;21697;-64
2023/08/11 13:30:57;;;;;;;2.42;0.80;;;;;;;;;;4828409;29;20120;-62
2023/08/11 13:33:23;;;;;;;1.35;0.55;;;;;;;;;;4843758;29;20081;-62
2023/08/11 13:35:50;;;;;;;1.00;0.38;;;;;;;;;;4831158;29;20052;-63
2023/08/11 13:38:16;;;;;;;1.38;0.60;;;;;;;;;;4830183;29;20453;-63
2023/08/11 13:40:44;;;;;;;1.15;0.65;;;;;;;;;;4829292;29;20942;-65
2023/08/11 13:43:10;;;;;;;2.63;0.80;;;;;;;;;;4832320;29;20057;-64
2023/08/11 13:45:37;;;;;;;2.05;0.70;;;;;;;;;;4827441;29;20550;-64
2023/08/11 13:48:04;;;;;;;2.63;0.47;;;;;;;;;;4833434;29;20046;-64
2023/08/11 13:50:30;;;;;;;1.42;0.50;;;;;;;;;;4833488;29;20058;-65
2023/08/11 13:52:56;;;;;;;2.65;0.55;;;;;;;;;;4838842;29;20507;-66
2023/08/11 13:55:24;;;;;;;1.40;0.55;;;;;;;;;;4835132;29;20502;-65
2023/08/11 13:57:51;;;;;;;2.55;0.47;;;;;;;;;;4835651;29;20050;-63
2023/08/11 14:00:17;;;;;;;1.65;0.93;;;;;;;;;;4834310;29;20064;-63
2023/08/11 14:02:44;;;;;;;0.75;0.50;;;;;;;;;;4833964;29;20053;-64
2023/08/11 14:05:10;;;;;;;6.55;3.15;;;;;;;;;;4829251;29;20153;-64
2023/08/11 14:07:37;;;;;;;3.78;0.82;;;;;;;;;;4829346;29;20054;-64
2023/08/11 14:10:03;;;;;;;4.85;0.90;;;;;;;;;;4827935;29;20646;-65
2023/08/11 14:12:30;;;;;;;4.47;1.20;;;;;;;;;;4837378;29;20136;-64
2023/08/11 14:14:56;;;;;;;2.47;0.50;;;;;;;;;;4815634;29;20133;-64
2023/08/11 14:17:23;;;;;;;1.95;0.77;;;;;;;;;;4833068;29;20855;-64
2023/08/11 14:19:49;;;;;;;0.93;0.60;;;;;;;;;;4835185;29;20150;-62
2023/08/11 14:22:16;;;;;;;2.17;0.95;;;;;;;;;;4837621;29;20053;-65
2023/08/11 14:24:42;;;;;;;4.53;0.65;;;;;;;;;;4835482;29;20484;-65
2023/08/11 14:27:09;;;;;;;1.58;0.47;;;;;;;;;;4838748;29;20186;-66
2023/08/11 14:29:35;;;;;;;1.65;0.88;;;;;;;;;;4837143;29;20121;-65
2023/08/11 14:32:02;;;;;;;2.80;0.90;;;;;;;;;;4830601;29;20341;-63
2023/08/11 14:34:48;;;;;;;1.13;0.43;;;;;;;;;;4827955;29;20050;-64
2023/08/11 14:37:15;;;;;;;4.32;1.13;;;;;;;;;;4835534;29;20137;-65
2023/08/11 14:39:43;;;;;;;8.02;2.00;;;;;;;;;;4829523;29;20482;-64
2023/08/11 14:42:10;;;;;;;3.63;0.82;;;;;;;;;;4835524;29;20065;-64